createdAt,value
2023-03-29T00:01:35.153Z,11.95
2023-03-29T00:04:04.350Z,8.55
2023-03-29T00:06:33.230Z,7.60
2023-03-29T00:09:05.387Z,7.05
2023-03-29T00:11:33.491Z,5.15
2023-03-29T00:14:01.179Z,5.57
2023-03-29T00:16:28.936Z,5.05
2023-03-29T00:18:56.614Z,4.65
2023-03-29T00:21:24.376Z,3.72
2023-03-29T00:23:52.042Z,4.97
2023-03-29T00:26:21.822Z,2.85
2023-03-29T00:28:49.820Z,3.35
2023-03-29T00:31:18.856Z,3.35
2023-03-29T00:33:47.456Z,3.95
2023-03-29T00:36:16.023Z,4.03
2023-03-29T00:38:43.875Z,3.85
2023-03-29T00:41:11.833Z,7.28
2023-03-29T00:43:55.349Z,2.47
2023-03-29T00:46:23.198Z,2.53
2023-03-29T00:48:54.213Z,2.42
2023-03-29T00:51:26.811Z,2.60
2023-03-29T00:53:58.577Z,2.05
2023-03-29T00:56:31.380Z,3.30
2023-03-29T00:59:04.029Z,2.80
2023-03-29T01:01:38.099Z,2.97
2023-03-29T01:04:17.904Z,3.08
2023-03-29T01:06:49.374Z,2.53
2023-03-29T01:09:20.049Z,4.30
2023-03-29T01:11:52.777Z,3.55
2023-03-29T01:14:24.707Z,2.30
2023-03-29T01:16:53.275Z,3.90
2023-03-29T01:19:24.151Z,2.60
2023-03-29T01:21:57.483Z,2.72
2023-03-29T01:24:45.299Z,3.60
2023-03-29T01:27:18.830Z,5.00
2023-03-29T01:29:54.213Z,3.10
2023-03-29T01:32:27.209Z,8.38
2023-03-29T01:34:59.625Z,8.77
2023-03-29T01:37:32.908Z,8.32
2023-03-29T01:40:02.214Z,4.43
2023-03-29T01:42:36.870Z,3.13
2023-03-29T01:45:16.470Z,6.53
2023-03-29T01:47:51.638Z,3.42
2023-03-29T01:50:28.286Z,2.17
2023-03-29T01:52:59.002Z,2.33
2023-03-29T01:55:32.903Z,3.17
2023-03-29T01:58:03.053Z,2.90
2023-03-29T02:00:34.251Z,4.15
2023-03-29T02:03:07.414Z,2.10
2023-03-29T02:05:36.881Z,3.65
2023-03-29T02:08:07.451Z,2.13
2023-03-29T02:10:36.915Z,3.38
2023-03-29T02:13:04.928Z,2.90
2023-03-29T02:15:33.993Z,2.83
2023-03-29T02:18:03.896Z,2.47
2023-03-29T02:20:36.771Z,2.47
2023-03-29T02:23:09.307Z,3.22
2023-03-29T02:25:38.463Z,2.38
2023-03-29T02:28:07.826Z,6.78
2023-03-29T02:30:44.998Z,1.90
2023-03-29T02:33:18.392Z,2.05
2023-03-29T02:35:53.247Z,2.42
2023-03-29T02:38:25.505Z,2.13
2023-03-29T02:40:53.918Z,3.28
2023-03-29T02:43:25.902Z,2.67
2023-03-29T02:45:56.071Z,2.35
2023-03-29T02:48:26.682Z,3.03
2023-03-29T02:50:57.753Z,3.15
2023-03-29T02:53:30.104Z,3.47
2023-03-29T02:55:58.113Z,2.28
2023-03-29T02:58:26.559Z,4.30
2023-03-29T03:00:57.138Z,3.92
2023-03-29T03:03:25.479Z,2.35
2023-03-29T03:05:53.859Z,3.22
2023-03-29T03:08:21.639Z,3.25
2023-03-29T03:10:49.342Z,2.40
2023-03-29T03:13:17.091Z,3.45
2023-03-29T03:15:48.839Z,4.32
2023-03-29T03:18:18.292Z,4.35
2023-03-29T03:20:55.773Z,3.40
2023-03-29T03:23:24.075Z,3.03
2023-03-29T03:25:52.580Z,2.95
2023-03-29T03:28:20.507Z,2.85
2023-03-29T03:30:48.159Z,2.97
2023-03-29T03:33:18.795Z,4.63
2023-03-29T03:35:47.997Z,4.25
2023-03-29T03:38:16.590Z,3.00
2023-03-29T03:40:44.309Z,3.50
2023-03-29T03:43:12.653Z,5.05
2023-03-29T03:45:40.413Z,6.43
2023-03-29T03:48:08.697Z,3.17
2023-03-29T03:50:38.305Z,3.72
2023-03-29T03:53:05.992Z,3.78
2023-03-29T03:55:33.799Z,3.72
2023-03-29T03:58:01.492Z,2.80
2023-03-29T04:00:29.742Z,3.10
2023-03-29T04:02:57.497Z,2.88
2023-03-29T04:05:25.383Z,3.35
2023-03-29T04:07:54.360Z,2.75
2023-03-29T04:10:22.699Z,2.20
2023-03-29T04:12:50.547Z,3.55
2023-03-29T04:15:20.251Z,2.50
2023-03-29T04:17:48.044Z,2.60
2023-03-29T04:20:15.886Z,3.40
2023-03-29T04:22:43.546Z,3.22
2023-03-29T04:25:12.723Z,2.58
2023-03-29T04:27:41.005Z,3.00
2023-03-29T04:30:09.902Z,2.47
2023-03-29T04:32:38.608Z,2.78
2023-03-29T04:35:06.860Z,2.10
2023-03-29T04:37:34.767Z,2.08
2023-03-29T04:40:04.415Z,4.07
2023-03-29T04:42:34.247Z,2.75
2023-03-29T04:45:02.143Z,2.25
2023-03-29T04:47:31.225Z,2.10
2023-03-29T04:49:59.023Z,2.67
2023-03-29T04:52:27.278Z,2.58
2023-03-29T04:54:54.971Z,1.98
2023-03-29T04:57:22.821Z,1.40
2023-03-29T04:59:51.871Z,5.53
2023-03-29T05:02:19.581Z,2.05
2023-03-29T05:04:47.313Z,7.05
2023-03-29T05:07:17.630Z,3.33
2023-03-29T05:09:45.339Z,1.98
2023-03-29T05:12:13.114Z,2.38
2023-03-29T05:14:40.937Z,2.17
2023-03-29T05:17:10.032Z,4.00
2023-03-29T05:19:38.337Z,2.40
2023-03-29T05:22:06.608Z,5.50
2023-03-29T05:24:34.334Z,1.63
2023-03-29T05:27:02.356Z,2.15
2023-03-29T05:29:32.633Z,3.97
2023-03-29T05:32:00.622Z,1.77
2023-03-29T05:34:30.965Z,3.10
2023-03-29T05:36:59.024Z,1.88
2023-03-29T05:39:26.929Z,1.38
2023-03-29T05:41:55.214Z,2.30
2023-03-29T05:44:23.110Z,1.92
2023-03-29T05:46:51.085Z,1.45
2023-03-29T05:49:18.953Z,2.15
2023-03-29T05:51:47.991Z,3.15
2023-03-29T05:54:16.427Z,5.68
2023-03-29T05:56:44.137Z,3.47
2023-03-29T05:59:11.827Z,2.83
2023-03-29T06:01:40.081Z,1.15
2023-03-29T06:04:08.348Z,2.28
2023-03-29T06:06:36.145Z,1.80
2023-03-29T06:09:05.810Z,2.30
2023-03-29T06:11:34.897Z,4.28
2023-03-29T06:14:03.520Z,2.63
2023-03-29T06:16:32.400Z,1.30
2023-03-29T06:19:00.436Z,1.40
2023-03-29T06:21:28.486Z,3.83
2023-03-29T06:23:56.165Z,1.33
2023-03-29T06:26:25.281Z,1.38
2023-03-29T06:28:52.974Z,2.45
2023-03-29T06:31:21.021Z,1.48
2023-03-29T06:33:49.434Z,1.55
2023-03-29T06:36:17.258Z,1.52
2023-03-29T06:38:45.911Z,2.90
2023-03-29T06:41:13.662Z,1.17
2023-03-29T06:43:43.150Z,1.20
2023-03-29T06:46:12.267Z,1.20
2023-03-29T06:48:40.944Z,2.75
2023-03-29T06:51:08.816Z,2.63
2023-03-29T06:53:36.676Z,2.15
2023-03-29T06:56:09.115Z,3.90
2023-03-29T06:58:37.549Z,3.50
2023-03-29T07:01:07.531Z,1.33
2023-03-29T07:03:36.321Z,5.10
2023-03-29T07:06:09.874Z,2.25
2023-03-29T07:08:43.324Z,5.15
2023-03-29T07:11:13.179Z,3.58
2023-03-29T07:13:42.458Z,2.95
2023-03-29T07:16:13.821Z,4.45
2023-03-29T07:18:42.814Z,5.90
2023-03-29T07:21:12.314Z,2.10
2023-03-29T07:23:40.666Z,2.05
2023-03-29T07:26:09.047Z,5.20
2023-03-29T07:28:37.920Z,2.45
2023-03-29T07:31:06.971Z,2.35
2023-03-29T07:33:36.548Z,1.75
2023-03-29T07:36:04.847Z,2.10
2023-03-29T07:38:32.657Z,3.80
2023-03-29T07:41:00.994Z,4.75
2023-03-29T07:43:29.053Z,4.70
2023-03-29T07:45:59.057Z,4.32
2023-03-29T07:48:27.129Z,3.90
2023-03-29T07:50:56.746Z,2.42
2023-03-29T07:53:25.221Z,3.60
2023-03-29T07:55:54.754Z,10.77
2023-03-29T07:58:22.744Z,3.28
2023-03-29T08:00:50.723Z,3.00
2023-03-29T08:03:18.650Z,3.50
2023-03-29T08:05:47.397Z,2.30
2023-03-29T08:08:16.473Z,1.48
2023-03-29T08:10:44.548Z,8.45
2023-03-29T08:13:12.498Z,1.50
2023-03-29T08:15:45.416Z,3.42
2023-03-29T08:18:13.214Z,3.50
2023-03-29T08:20:41.027Z,4.50
2023-03-29T08:23:08.688Z,4.32
2023-03-29T08:25:38.213Z,2.78
2023-03-29T08:28:05.983Z,1.30
2023-03-29T08:30:33.938Z,5.32
2023-03-29T08:33:01.763Z,4.20
2023-03-29T08:35:29.494Z,2.70
2023-03-29T08:37:57.501Z,4.18
2023-03-29T08:40:30.022Z,4.50
2023-03-29T08:43:22.087Z,1.88
2023-03-29T08:46:02.474Z,3.28
2023-03-29T08:48:32.925Z,2.63
2023-03-29T08:51:07.966Z,4.25
2023-03-29T08:53:44.161Z,2.90
2023-03-29T08:56:16.036Z,10.52
2023-03-29T08:58:47.098Z,2.88
2023-03-29T09:01:15.267Z,1.90
2023-03-29T09:03:48.424Z,1.42
2023-03-29T09:06:17.556Z,5.75
2023-03-29T09:08:47.826Z,2.58
2023-03-29T09:11:33.360Z,4.60
2023-03-29T09:14:18.168Z,2.08
2023-03-29T09:16:56.144Z,3.00
2023-03-29T09:19:33.810Z,3.97
2023-03-29T09:22:14.020Z,3.67
2023-03-29T09:24:54.629Z,2.92
2023-03-29T09:27:27.612Z,2.45
2023-03-29T09:30:06.164Z,5.20
2023-03-29T09:32:45.291Z,3.05
2023-03-29T09:35:18.606Z,2.97
2023-03-29T09:37:48.772Z,2.35
2023-03-29T09:40:20.557Z,12.55
2023-03-29T09:42:52.011Z,3.63
2023-03-29T09:45:21.158Z,3.10
2023-03-29T09:47:52.865Z,1.60
2023-03-29T09:50:31.382Z,2.13
2023-03-29T09:53:00.593Z,4.82
2023-03-29T09:55:31.104Z,6.28
2023-03-29T09:58:01.703Z,3.63
2023-03-29T10:00:30.981Z,7.68
2023-03-29T10:03:00.306Z,3.88
2023-03-29T10:05:31.996Z,2.95
2023-03-29T10:08:02.108Z,3.47
2023-03-29T10:10:32.436Z,4.68
2023-03-29T10:13:02.183Z,3.15
2023-03-29T10:15:32.614Z,4.47
2023-03-29T10:18:03.144Z,3.45
2023-03-29T10:20:31.066Z,2.50
2023-03-29T10:22:59.982Z,3.85
2023-03-29T10:25:31.301Z,3.97
2023-03-29T10:28:05.120Z,2.08
2023-03-29T10:30:37.216Z,1.90
2023-03-29T10:33:05.364Z,3.10
2023-03-29T10:35:35.647Z,1.50
2023-03-29T10:38:07.818Z,13.02
2023-03-29T10:40:42.455Z,3.78
2023-03-29T10:43:15.810Z,1.85
2023-03-29T10:45:48.864Z,1.35
2023-03-29T10:48:19.295Z,3.72
2023-03-29T10:50:50.775Z,3.17
2023-03-29T10:53:27.626Z,3.38
2023-03-29T10:56:07.846Z,6.28
2023-03-29T10:58:46.090Z,1.92
2023-03-29T11:01:19.336Z,5.90
2023-03-29T11:04:08.743Z,3.30
2023-03-29T11:06:41.138Z,3.20
2023-03-29T11:09:21.476Z,4.28
2023-03-29T11:12:14.460Z,3.55
2023-03-29T11:14:53.795Z,3.90
2023-03-29T11:17:39.345Z,4.53
2023-03-29T11:20:21.598Z,6.68
2023-03-29T11:22:57.970Z,4.55
2023-03-29T11:25:35.976Z,3.25
2023-03-29T11:28:12.074Z,1.95
2023-03-29T11:30:46.129Z,1.90
2023-03-29T11:33:25.183Z,3.38
2023-03-29T11:36:01.649Z,4.78
2023-03-29T11:38:34.810Z,3.60
2023-03-29T11:41:06.564Z,4.28
2023-03-29T11:43:37.615Z,6.40
2023-03-29T11:46:13.406Z,2.95
2023-03-29T11:48:49.411Z,2.63
2023-03-29T11:51:22.524Z,2.55
2023-03-29T11:53:57.391Z,4.25
2023-03-29T11:56:29.356Z,2.00
2023-03-29T11:59:04.669Z,6.40
2023-03-29T12:01:37.616Z,3.20
2023-03-29T12:04:14.263Z,4.97
2023-03-29T12:06:48.672Z,3.50
2023-03-29T12:09:27.350Z,4.25
2023-03-29T12:12:03.019Z,2.75
2023-03-29T12:14:43.458Z,3.22
2023-03-29T12:17:15.636Z,4.32
2023-03-29T12:19:50.659Z,5.32
2023-03-29T12:22:18.951Z,3.65
2023-03-29T12:24:49.161Z,4.20
2023-03-29T12:27:27.129Z,4.45
2023-03-29T12:30:25.287Z,2.22
2023-03-29T12:33:15.313Z,5.65
2023-03-29T12:35:59.161Z,2.53
2023-03-29T12:38:30.848Z,4.78
2023-03-29T12:41:02.011Z,2.20
2023-03-29T12:43:32.930Z,4.00
2023-03-29T12:46:07.908Z,3.28
2023-03-29T12:48:41.478Z,4.20
2023-03-29T12:51:15.371Z,3.72
2023-03-29T12:53:46.914Z,3.15
2023-03-29T12:56:17.056Z,3.13
2023-03-29T12:58:54.702Z,4.70
2023-03-29T13:01:31.122Z,3.10
2023-03-29T13:04:18.357Z,2.13
2023-03-29T13:07:03.095Z,1.63
2023-03-29T13:09:35.479Z,3.08
2023-03-29T13:12:20.480Z,3.13
2023-03-29T13:14:53.985Z,1.83
2023-03-29T13:17:27.644Z,6.78
2023-03-29T13:20:12.443Z,3.08
2023-03-29T13:22:52.553Z,4.13
2023-03-29T13:25:42.187Z,2.47
2023-03-29T13:28:21.685Z,2.83
2023-03-29T13:30:58.813Z,2.53
2023-03-29T13:33:46.148Z,4.15
2023-03-29T13:36:22.530Z,2.58
2023-03-29T13:38:58.413Z,2.10
2023-03-29T13:41:33.932Z,5.90
2023-03-29T13:44:02.558Z,6.57
2023-03-29T13:46:40.772Z,1.77
2023-03-29T13:49:16.803Z,4.18
2023-03-29T13:52:01.271Z,1.70
2023-03-29T13:54:36.554Z,4.00
2023-03-29T13:57:10.060Z,3.35
2023-03-29T13:59:49.161Z,3.17
2023-03-29T14:02:23.574Z,3.22
2023-03-29T14:04:53.732Z,3.35
2023-03-29T14:07:26.362Z,5.90
2023-03-29T14:09:58.629Z,4.13
2023-03-29T14:12:32.977Z,5.53
2023-03-29T14:15:04.996Z,2.10
2023-03-29T14:17:35.056Z,3.30
2023-03-29T14:20:09.039Z,10.38
2023-03-29T14:22:37.382Z,4.80
2023-03-29T14:25:16.066Z,4.68
2023-03-29T14:27:44.282Z,4.03
2023-03-29T14:30:21.686Z,10.15
2023-03-29T14:32:51.117Z,5.10
2023-03-29T14:35:19.968Z,5.20
2023-03-29T14:37:49.672Z,4.88
2023-03-29T14:40:20.883Z,7.95
2023-03-29T14:42:50.881Z,9.38
2023-03-29T14:45:23.258Z,25.23
2023-03-29T14:47:52.713Z,4.45
2023-03-29T14:50:25.066Z,8.88
2023-03-29T14:52:53.721Z,5.05
2023-03-29T14:55:24.832Z,3.38
2023-03-29T14:57:55.690Z,3.72
2023-03-29T15:00:28.159Z,3.33
2023-03-29T15:02:59.080Z,4.28
2023-03-29T15:05:33.714Z,6.32
2023-03-29T15:08:02.681Z,3.92
2023-03-29T15:10:35.068Z,4.88
2023-03-29T15:13:04.756Z,9.02
2023-03-29T15:15:34.890Z,5.05
2023-03-29T15:18:04.180Z,3.50
2023-03-29T15:20:35.581Z,3.63
2023-03-29T15:23:05.158Z,6.47
2023-03-29T15:25:39.368Z,4.15
2023-03-29T15:28:07.590Z,2.75
2023-03-29T15:30:37.188Z,5.10
2023-03-29T15:33:21.980Z,5.70
2023-03-29T15:35:52.267Z,5.20
2023-03-29T15:38:25.445Z,4.80
2023-03-29T15:41:00.305Z,4.75
2023-03-29T15:43:28.262Z,4.50
2023-03-29T15:45:56.030Z,6.65
2023-03-29T15:48:25.665Z,7.47
2023-03-29T15:50:58.974Z,4.57
2023-03-29T15:53:28.796Z,7.53
2023-03-29T15:56:02.548Z,4.78
2023-03-29T15:58:33.382Z,5.88
2023-03-29T16:01:11.172Z,5.30
2023-03-29T16:03:39.314Z,9.35
2023-03-29T16:06:10.677Z,9.07
2023-03-29T16:08:38.534Z,6.00
2023-03-29T16:11:08.231Z,3.60
2023-03-29T16:13:37.642Z,4.93
2023-03-29T16:16:06.398Z,18.98
2023-03-29T16:18:35.289Z,6.20
2023-03-29T16:21:03.298Z,8.30
2023-03-29T16:23:30.986Z,7.82
2023-03-29T16:26:02.481Z,7.20
2023-03-29T16:28:31.767Z,5.97
2023-03-29T16:31:00.156Z,6.65
2023-03-29T16:33:27.904Z,4.43
2023-03-29T16:35:56.137Z,4.63
2023-03-29T16:38:24.382Z,7.57
2023-03-29T16:40:52.584Z,6.13
2023-03-29T16:43:20.306Z,5.13
2023-03-29T16:45:49.392Z,6.53
2023-03-29T16:48:19.470Z,5.32
2023-03-29T16:50:49.246Z,7.25
2023-03-29T16:53:18.299Z,7.50
2023-03-29T16:55:46.337Z,4.22
2023-03-29T16:58:16.514Z,4.32
2023-03-29T17:00:47.248Z,10.02
2023-03-29T17:03:17.264Z,6.50
2023-03-29T17:05:49.883Z,8.10
2023-03-29T17:08:17.682Z,8.93
2023-03-29T17:10:45.535Z,6.15
2023-03-29T17:13:13.910Z,7.07
2023-03-29T17:15:41.658Z,6.72
2023-03-29T17:18:09.581Z,3.90
2023-03-29T17:20:41.071Z,7.05
2023-03-29T17:23:09.375Z,4.25
2023-03-29T17:25:37.310Z,9.27
2023-03-29T17:28:05.673Z,9.45
2023-03-29T17:30:34.777Z,8.98
2023-03-29T17:33:02.616Z,7.20
2023-03-29T17:35:30.387Z,9.63
2023-03-29T17:38:00.432Z,7.70
2023-03-29T17:40:28.350Z,8.68
2023-03-29T17:42:56.095Z,5.85
2023-03-29T17:45:23.807Z,8.98
2023-03-29T17:47:51.529Z,6.47
2023-03-29T17:50:19.565Z,9.50
2023-03-29T17:52:47.315Z,7.90
2023-03-29T17:55:16.681Z,4.97
2023-03-29T17:57:44.877Z,7.75
2023-03-29T18:00:14.870Z,8.18
2023-03-29T18:02:42.688Z,6.07
2023-03-29T18:05:10.871Z,8.07
2023-03-29T18:07:38.829Z,7.80
2023-03-29T18:10:08.676Z,13.02
2023-03-29T18:12:37.746Z,5.90
2023-03-29T18:15:09.085Z,4.88
2023-03-29T18:17:37.090Z,5.78
2023-03-29T18:20:09.848Z,10.00
2023-03-29T18:22:37.883Z,8.68
2023-03-29T18:25:07.283Z,8.85
2023-03-29T18:27:35.458Z,9.73
2023-03-29T18:30:06.384Z,6.97
2023-03-29T18:32:34.256Z,8.00
2023-03-29T18:35:02.700Z,9.48
2023-03-29T18:37:30.364Z,4.88
2023-03-29T18:39:58.047Z,6.88
2023-03-29T18:42:25.806Z,7.28
2023-03-29T18:44:53.457Z,7.57
2023-03-29T18:47:22.598Z,4.35
2023-03-29T18:49:54.566Z,8.38
2023-03-29T18:52:25.184Z,10.25
2023-03-29T18:54:52.885Z,8.45
2023-03-29T18:57:21.040Z,9.20
2023-03-29T18:59:48.987Z,8.10
2023-03-29T19:02:16.815Z,6.95
2023-03-29T19:04:46.065Z,7.00
2023-03-29T19:07:20.460Z,8.30
2023-03-29T19:09:48.201Z,9.63
2023-03-29T19:12:16.008Z,9.85
2023-03-29T19:14:43.738Z,12.98
2023-03-29T19:17:11.486Z,10.30
2023-03-29T19:19:39.386Z,9.18
2023-03-29T19:22:08.545Z,7.13
2023-03-29T19:24:36.293Z,9.32
2023-03-29T19:27:04.111Z,10.38
2023-03-29T19:29:31.867Z,8.80
2023-03-29T19:31:59.647Z,8.55
2023-03-29T19:34:27.561Z,10.15
2023-03-29T19:36:55.448Z,10.68
2023-03-29T19:39:26.669Z,11.40
2023-03-29T19:41:55.713Z,9.82
2023-03-29T19:44:24.462Z,10.70
2023-03-29T19:46:52.891Z,12.13
2023-03-29T19:49:20.659Z,11.25
2023-03-29T19:51:48.948Z,6.72
2023-03-29T19:54:17.316Z,8.25
2023-03-29T19:56:46.547Z,9.82
2023-03-29T19:59:15.117Z,9.85
2023-03-29T20:01:50.734Z,12.45
2023-03-29T20:04:19.301Z,8.60
2023-03-29T20:06:47.436Z,9.75
2023-03-29T20:09:16.042Z,10.10
2023-03-29T20:11:44.652Z,11.38
2023-03-29T20:14:13.713Z,9.23
2023-03-29T20:16:42.593Z,8.82
2023-03-29T20:19:10.674Z,9.95
2023-03-29T20:21:38.374Z,13.88
2023-03-29T20:24:08.548Z,8.93
2023-03-29T20:26:37.254Z,11.00
2023-03-29T20:29:04.940Z,7.07
2023-03-29T20:31:34.088Z,10.93
2023-03-29T20:34:01.900Z,12.13
2023-03-29T20:36:31.072Z,7.55
2023-03-29T20:39:00.229Z,16.17
2023-03-29T20:41:28.066Z,10.20
2023-03-29T20:43:59.637Z,15.52
2023-03-29T20:46:33.356Z,12.35
2023-03-29T20:49:04.563Z,11.43
2023-03-29T20:51:32.874Z,8.30
2023-03-29T20:54:04.381Z,10.00
2023-03-29T20:56:32.738Z,8.07
2023-03-29T20:59:00.391Z,12.57
2023-03-29T21:01:29.547Z,7.70
2023-03-29T21:03:57.456Z,12.77
2023-03-29T21:06:26.516Z,10.50
2023-03-29T21:08:54.414Z,10.63
2023-03-29T21:11:22.166Z,8.23
2023-03-29T21:13:49.827Z,12.95
2023-03-29T21:16:17.593Z,10.50
2023-03-29T21:18:45.376Z,10.68
2023-03-29T21:21:13.638Z,17.48
2023-03-29T21:23:42.659Z,9.60
2023-03-29T21:26:10.384Z,10.07
2023-03-29T21:28:38.522Z,19.15
2023-03-29T21:31:07.058Z,12.85
2023-03-29T21:33:35.460Z,9.80
2023-03-29T21:36:03.512Z,7.57
2023-03-29T21:38:31.246Z,12.57
2023-03-29T21:41:00.934Z,10.25
2023-03-29T21:43:28.750Z,16.95
2023-03-29T21:45:57.582Z,16.08
2023-03-29T21:48:25.320Z,11.32
2023-03-29T21:50:53.009Z,11.02
2023-03-29T21:53:20.838Z,8.13
2023-03-29T21:55:49.310Z,10.15
2023-03-29T21:58:18.996Z,11.38
2023-03-29T22:00:47.945Z,9.02
2023-03-29T22:03:16.438Z,16.13
2023-03-29T22:05:44.929Z,12.93
2023-03-29T22:08:12.776Z,9.30
2023-03-29T22:10:41.629Z,8.20
2023-03-29T22:13:09.583Z,10.13
2023-03-29T22:15:38.924Z,6.80
2023-03-29T22:18:08.297Z,10.60
2023-03-29T22:20:36.197Z,10.73
2023-03-29T22:23:04.727Z,12.60
2023-03-29T22:25:32.548Z,7.25
2023-03-29T22:28:00.436Z,10.25
2023-03-29T22:30:28.184Z,11.13
2023-03-29T22:32:57.315Z,11.75
2023-03-29T22:35:25.118Z,14.80
2023-03-29T22:37:52.820Z,7.18
2023-03-29T22:40:20.729Z,11.05
2023-03-29T22:42:48.419Z,8.13
2023-03-29T22:45:16.236Z,8.23
2023-03-29T22:47:44.075Z,12.60
2023-03-29T22:50:13.339Z,5.30
2023-03-29T22:52:41.029Z,9.75
2023-03-29T23:02:07.889Z,12.63
2023-03-29T23:04:36.620Z,7.82
2023-03-29T23:07:04.315Z,9.43
2023-03-29T23:09:32.434Z,10.60
2023-03-29T23:12:01.109Z,12.48
2023-03-29T23:14:28.839Z,9.77
2023-03-29T23:16:58.209Z,8.75
2023-03-29T23:19:25.899Z,7.95
2023-03-29T23:21:55.099Z,10.65
2023-03-29T23:24:22.908Z,11.32
2023-03-29T23:26:50.627Z,9.57
2023-03-29T23:29:18.374Z,7.32
2023-03-29T23:31:47.721Z,10.73
2023-03-29T23:34:16.863Z,10.90
2023-03-29T23:36:44.536Z,9.30
2023-03-29T23:39:12.172Z,10.57
2023-03-29T23:41:40.139Z,6.35
2023-03-29T23:44:07.911Z,9.70
2023-03-29T23:46:38.846Z,10.75
2023-03-29T23:49:06.568Z,11.57
2023-03-29T23:51:36.787Z,7.43
2023-03-29T23:54:05.116Z,11.25
2023-03-29T23:56:32.804Z,10.75
2023-03-29T23:59:01.404Z,9.30
